sensor_id;sensor_type;location;lat;lon;timestamp;pressure;altitude;pressure_sealevel;temperature
19196;BMP280;9730;48.926;11.376;2022-07-01T00:01:37;97068.94;;;20.66
19196;BMP280;9730;48.926;11.376;2022-07-01T00:04:05;97068.56;;;20.97
19196;BMP280;9730;48.926;11.376;2022-07-01T00:06:32;97066.44;;;20.92
19196;BMP280;9730;48.926;11.376;2022-07-01T00:08:59;97075.22;;;21.07
19196;BMP280;9730;48.926;11.376;2022-07-01T00:11:27;97084.28;;;21.02
19196;BMP280;9730;48.926;11.376;2022-07-01T00:13:53;97083.03;;;20.88
19196;BMP280;9730;48.926;11.376;2022-07-01T00:16:20;97069.38;;;21.15
19196;BMP280;9730;48.926;11.376;2022-07-01T00:18:46;97074.53;;;20.88
19196;BMP280;9730;48.926;11.376;2022-07-01T00:21:13;97090.19;;;20.85
19196;BMP280;9730;48.926;11.376;2022-07-01T00:23:39;97111.22;;;20.88
19196;BMP280;9730;48.926;11.376;2022-07-01T00:26:07;97120.25;;;20.47
19196;BMP280;9730;48.926;11.376;2022-07-01T00:28:35;97102.41;;;20.64
19196;BMP280;9730;48.926;11.376;2022-07-01T00:31:02;97104.25;;;20.35
19196;BMP280;9730;48.926;11.376;2022-07-01T00:33:29;97097.63;;;20.33
19196;BMP280;9730;48.926;11.376;2022-07-01T00:35:55;97086.19;;;20.27
19196;BMP280;9730;48.926;11.376;2022-07-01T00:38:22;97065.66;;;20.01
19196;BMP280;9730;48.926;11.376;2022-07-01T00:40:51;97051.22;;;20.09
19196;BMP280;9730;48.926;11.376;2022-07-01T00:43:18;97052.22;;;19.99
19196;BMP280;9730;48.926;11.376;2022-07-01T00:45:49;97044.53;;;19.99
19196;BMP280;9730;48.926;11.376;2022-07-01T00:48:16;97041.44;;;19.95
19196;BMP280;9730;48.926;11.376;2022-07-01T00:50:44;97067.97;;;19.57
19196;BMP280;9730;48.926;11.376;2022-07-01T00:53:11;97083.72;;;19.43
19196;BMP280;9730;48.926;11.376;2022-07-01T00:55:38;97084.41;;;19.35
19196;BMP280;9730;48.926;11.376;2022-07-01T00:58:05;97090.28;;;19.17
19196;BMP280;9730;48.926;11.376;2022-07-01T01:00:32;97101.31;;;19.27
19196;BMP280;9730;48.926;11.376;2022-07-01T01:03:00;97114.63;;;19.12
19196;BMP280;9730;48.926;11.376;2022-07-01T01:05:26;97112.91;;;19.21
19196;BMP280;9730;48.926;11.376;2022-07-01T01:07:53;97114.09;;;19.27
19196;BMP280;9730;48.926;11.376;2022-07-01T01:10:21;97112.13;;;19.40
19196;BMP280;9730;48.926;11.376;2022-07-01T01:12:49;97114.78;;;19.29
19196;BMP280;9730;48.926;11.376;2022-07-01T01:15:17;97122.31;;;19.21
19196;BMP280;9730;48.926;11.376;2022-07-01T01:17:44;97115.34;;;19.23
19196;BMP280;9730;48.926;11.376;2022-07-01T01:20:14;97107.41;;;19.35
19196;BMP280;9730;48.926;11.376;2022-07-01T01:22:42;97106.41;;;19.08
19196;BMP280;9730;48.926;11.376;2022-07-01T01:25:09;97106.69;;;19.15
19196;BMP280;9730;48.926;11.376;2022-07-01T01:27:36;97108.16;;;19.17
19196;BMP280;9730;48.926;11.376;2022-07-01T01:30:03;97112.78;;;19.23
19196;BMP280;9730;48.926;11.376;2022-07-01T01:32:30;97115.72;;;19.28
19196;BMP280;9730;48.926;11.376;2022-07-01T01:34:57;97121.09;;;19.25
19196;BMP280;9730;48.926;11.376;2022-07-01T01:37:23;97111.41;;;19.19
19196;BMP280;9730;48.926;11.376;2022-07-01T01:39:51;97114.09;;;19.27
19196;BMP280;9730;48.926;11.376;2022-07-01T01:42:18;97118.94;;;19.11
19196;BMP280;9730;48.926;11.376;2022-07-01T01:44:44;97112.25;;;18.99
19196;BMP280;9730;48.926;11.376;2022-07-01T01:47:11;97113.56;;;19.14
19196;BMP280;9730;48.926;11.376;2022-07-01T01:49:37;97113.84;;;18.91
19196;BMP280;9730;48.926;11.376;2022-07-01T01:52:05;97120.72;;;18.90
19196;BMP280;9730;48.926;11.376;2022-07-01T01:54:31;97118.63;;;19.05
19196;BMP280;9730;48.926;11.376;2022-07-01T01:57:00;97124.03;;;19.11
19196;BMP280;9730;48.926;11.376;2022-07-01T01:59:26;97109.81;;;19.27
19196;BMP280;9730;48.926;11.376;2022-07-01T02:01:53;97111.78;;;19.05
19196;BMP280;9730;48.926;11.376;2022-07-01T02:04:20;97116.06;;;19.05
19196;BMP280;9730;48.926;11.376;2022-07-01T02:06:48;97116.25;;;19.22
19196;BMP280;9730;48.926;11.376;2022-07-01T02:09:15;97123.81;;;19.33
19196;BMP280;9730;48.926;11.376;2022-07-01T02:11:42;97110.91;;;19.34
19196;BMP280;9730;48.926;11.376;2022-07-01T02:14:09;97116.44;;;19.00
19196;BMP280;9730;48.926;11.376;2022-07-01T02:16:36;97113.06;;;18.90
19196;BMP280;9730;48.926;11.376;2022-07-01T02:19:02;97119.00;;;19.00
19196;BMP280;9730;48.926;11.376;2022-07-01T02:21:29;97116.94;;;18.85
19196;BMP280;9730;48.926;11.376;2022-07-01T02:23:56;97115.13;;;18.76
19196;BMP280;9730;48.926;11.376;2022-07-01T02:26:22;97120.78;;;18.70
19196;BMP280;9730;48.926;11.376;2022-07-01T02:28:49;97126.81;;;18.60
19196;BMP280;9730;48.926;11.376;2022-07-01T02:31:17;97132.53;;;18.52
19196;BMP280;9730;48.926;11.376;2022-07-01T02:33:43;97139.25;;;18.53
19196;BMP280;9730;48.926;11.376;2022-07-01T02:36:10;97146.34;;;18.50
19196;BMP280;9730;48.926;11.376;2022-07-01T02:38:36;97147.91;;;18.41
19196;BMP280;9730;48.926;11.376;2022-07-01T02:41:03;97149.16;;;18.47
19196;BMP280;9730;48.926;11.376;2022-07-01T02:43:29;97140.50;;;18.59
19196;BMP280;9730;48.926;11.376;2022-07-01T02:45:56;97157.03;;;18.84
19196;BMP280;9730;48.926;11.376;2022-07-01T02:48:24;97148.66;;;18.82
19196;BMP280;9730;48.926;11.376;2022-07-01T02:50:50;97156.06;;;18.56
19196;BMP280;9730;48.926;11.376;2022-07-01T02:53:17;97164.34;;;18.48
19196;BMP280;9730;48.926;11.376;2022-07-01T02:55:43;97168.06;;;18.64
19196;BMP280;9730;48.926;11.376;2022-07-01T02:58:10;97176.00;;;18.62
19196;BMP280;9730;48.926;11.376;2022-07-01T03:00:36;97164.25;;;18.79
19196;BMP280;9730;48.926;11.376;2022-07-01T03:03:03;97171.13;;;18.88
19196;BMP280;9730;48.926;11.376;2022-07-01T03:05:31;97176.94;;;18.90
19196;BMP280;9730;48.926;11.376;2022-07-01T03:07:57;97178.72;;;18.99
19196;BMP280;9730;48.926;11.376;2022-07-01T03:10:24;97179.97;;;19.05
19196;BMP280;9730;48.926;11.376;2022-07-01T03:12:50;97189.97;;;19.17
19196;BMP280;9730;48.926;11.376;2022-07-01T03:15:17;97183.75;;;19.10
19196;BMP280;9730;48.926;11.376;2022-07-01T03:17:45;97198.06;;;18.63
19196;BMP280;9730;48.926;11.376;2022-07-01T03:20:13;97184.28;;;18.84
19196;BMP280;9730;48.926;11.376;2022-07-01T03:22:42;97193.88;;;18.62
19196;BMP280;9730;48.926;11.376;2022-07-01T03:25:09;97190.22;;;18.84
19196;BMP280;9730;48.926;11.376;2022-07-01T03:27:36;97196.09;;;18.55
19196;BMP280;9730;48.926;11.376;2022-07-01T03:30:04;97200.47;;;18.23
19196;BMP280;9730;48.926;11.376;2022-07-01T03:32:31;97198.13;;;18.31
19196;BMP280;9730;48.926;11.376;2022-07-01T03:34:59;97212.13;;;18.37
19196;BMP280;9730;48.926;11.376;2022-07-01T03:37:25;97220.34;;;18.61
19196;BMP280;9730;48.926;11.376;2022-07-01T03:39:53;97216.97;;;18.80
19196;BMP280;9730;48.926;11.376;2022-07-01T03:42:20;97223.78;;;19.00
19196;BMP280;9730;48.926;11.376;2022-07-01T03:44:46;97247.88;;;18.57
19196;BMP280;9730;48.926;11.376;2022-07-01T03:47:13;97247.19;;;18.35
19196;BMP280;9730;48.926;11.376;2022-07-01T03:49:39;97239.41;;;18.36
19196;BMP280;9730;48.926;11.376;2022-07-01T03:52:06;97250.13;;;17.88
19196;BMP280;9730;48.926;11.376;2022-07-01T03:54:33;97258.47;;;17.90
19196;BMP280;9730;48.926;11.376;2022-07-01T03:57:05;97249.31;;;17.88
19196;BMP280;9730;48.926;11.376;2022-07-01T03:59:33;97255.03;;;17.69
19196;BMP280;9730;48.926;11.376;2022-07-01T04:02:01;97249.22;;;17.78
19196;BMP280;9730;48.926;11.376;2022-07-01T04:04:27;97247.84;;;17.74
19196;BMP280;9730;48.926;11.376;2022-07-01T04:06:55;97252.50;;;17.58
19196;BMP280;9730;48.926;11.376;2022-07-01T04:09:23;97245.31;;;17.74
19196;BMP280;9730;48.926;11.376;2022-07-01T04:11:50;97245.06;;;17.66
19196;BMP280;9730;48.926;11.376;2022-07-01T04:14:18;97235.81;;;17.55
19196;BMP280;9730;48.926;11.376;2022-07-01T04:16:46;97236.31;;;17.49
19196;BMP280;9730;48.926;11.376;2022-07-01T04:19:13;97234.53;;;17.60
19196;BMP280;9730;48.926;11.376;2022-07-01T04:21:40;97220.47;;;17.76
19196;BMP280;9730;48.926;11.376;2022-07-01T04:24:24;97228.56;;;17.92
19196;BMP280;9730;48.926;11.376;2022-07-01T04:26:52;97223.97;;;17.75
19196;BMP280;9730;48.926;11.376;2022-07-01T04:29:20;97218.63;;;17.78
19196;BMP280;9730;48.926;11.376;2022-07-01T04:31:47;97220.06;;;17.92
19196;BMP280;9730;48.926;11.376;2022-07-01T04:34:13;97217.66;;;17.79
19196;BMP280;9730;48.926;11.376;2022-07-01T04:36:40;97219.81;;;17.63
19196;BMP280;9730;48.926;11.376;2022-07-01T04:39:07;97220.31;;;17.58
19196;BMP280;9730;48.926;11.376;2022-07-01T04:41:34;97215.41;;;17.65
19196;BMP280;9730;48.926;11.376;2022-07-01T04:44:17;97203.72;;;17.63
19196;BMP280;9730;48.926;11.376;2022-07-01T04:46:45;97202.41;;;17.68
19196;BMP280;9730;48.926;11.376;2022-07-01T04:49:12;97208.25;;;17.91
19196;BMP280;9730;48.926;11.376;2022-07-01T04:51:39;97211.44;;;18.04
19196;BMP280;9730;48.926;11.376;2022-07-01T04:54:06;97220.41;;;17.98
19196;BMP280;9730;48.926;11.376;2022-07-01T04:56:34;97232.34;;;17.98
19196;BMP280;9730;48.926;11.376;2022-07-01T04:59:01;97216.34;;;17.96
19196;BMP280;9730;48.926;11.376;2022-07-01T05:01:28;97216.75;;;17.80
19196;BMP280;9730;48.926;11.376;2022-07-01T05:03:56;97231.28;;;18.00
19196;BMP280;9730;48.926;11.376;2022-07-01T05:06:23;97231.25;;;18.11
19196;BMP280;9730;48.926;11.376;2022-07-01T05:08:50;97246.75;;;18.30
19196;BMP280;9730;48.926;11.376;2022-07-01T05:11:16;97258.06;;;18.06
19196;BMP280;9730;48.926;11.376;2022-07-01T05:13:43;97265.91;;;18.24
19196;BMP280;9730;48.926;11.376;2022-07-01T05:16:10;97271.31;;;18.42
19196;BMP280;9730;48.926;11.376;2022-07-01T05:18:37;97274.81;;;18.61
19196;BMP280;9730;48.926;11.376;2022-07-01T05:21:19;97293.97;;;18.56
19196;BMP280;9730;48.926;11.376;2022-07-01T05:24:03;97299.25;;;18.43
19196;BMP280;9730;48.926;11.376;2022-07-01T05:26:30;97304.25;;;18.45
19196;BMP280;9730;48.926;11.376;2022-07-01T05:28:57;97301.50;;;18.37
19196;BMP280;9730;48.926;11.376;2022-07-01T05:31:23;97296.69;;;18.01
19196;BMP280;9730;48.926;11.376;2022-07-01T05:33:50;97298.59;;;18.30
19196;BMP280;9730;48.926;11.376;2022-07-01T05:36:16;97303.97;;;17.63
19196;BMP280;9730;48.926;11.376;2022-07-01T05:38:44;97322.88;;;17.39
19196;BMP280;9730;48.926;11.376;2022-07-01T05:41:12;97325.78;;;17.46
19196;BMP280;9730;48.926;11.376;2022-07-01T05:43:39;97329.31;;;17.21
19196;BMP280;9730;48.926;11.376;2022-07-01T05:46:05;97322.28;;;17.25
19196;BMP280;9730;48.926;11.376;2022-07-01T05:48:32;97328.03;;;17.16
19196;BMP280;9730;48.926;11.376;2022-07-01T05:50:58;97322.38;;;17.12
19196;BMP280;9730;48.926;11.376;2022-07-01T05:53:25;97325.44;;;16.83
19196;BMP280;9730;48.926;11.376;2022-07-01T05:55:53;97334.66;;;16.62
19196;BMP280;9730;48.926;11.376;2022-07-01T05:58:19;97347.84;;;16.67
19196;BMP280;9730;48.926;11.376;2022-07-01T06:00:46;97346.06;;;16.91
19196;BMP280;9730;48.926;11.376;2022-07-01T06:03:14;97353.72;;;17.02
19196;BMP280;9730;48.926;11.376;2022-07-01T06:05:41;97343.75;;;16.99
19196;BMP280;9730;48.926;11.376;2022-07-01T06:08:08;97346.69;;;17.16
19196;BMP280;9730;48.926;11.376;2022-07-01T06:10:35;97344.28;;;17.15
19196;BMP280;9730;48.926;11.376;2022-07-01T06:13:03;97352.31;;;16.98
19196;BMP280;9730;48.926;11.376;2022-07-01T06:15:30;97344.84;;;17.18
19196;BMP280;9730;48.926;11.376;2022-07-01T06:17:56;97350.28;;;17.14
19196;BMP280;9730;48.926;11.376;2022-07-01T06:20:23;97347.06;;;17.23
19196;BMP280;9730;48.926;11.376;2022-07-01T06:22:49;97357.34;;;17.21
19196;BMP280;9730;48.926;11.376;2022-07-01T06:25:16;97363.75;;;17.27
19196;BMP280;9730;48.926;11.376;2022-07-01T06:27:44;97369.97;;;17.12
19196;BMP280;9730;48.926;11.376;2022-07-01T06:30:12;97375.84;;;17.02
19196;BMP280;9730;48.926;11.376;2022-07-01T06:32:39;97383.50;;;17.02
19196;BMP280;9730;48.926;11.376;2022-07-01T06:35:06;97385.81;;;17.04
19196;BMP280;9730;48.926;11.376;2022-07-01T06:37:33;97389.41;;;17.13
19196;BMP280;9730;48.926;11.376;2022-07-01T06:40:02;97400.59;;;17.23
19196;BMP280;9730;48.926;11.376;2022-07-01T06:42:28;97403.09;;;17.01
19196;BMP280;9730;48.926;11.376;2022-07-01T06:44:55;97408.38;;;16.98
19196;BMP280;9730;48.926;11.376;2022-07-01T06:47:23;97421.03;;;17.10
19196;BMP280;9730;48.926;11.376;2022-07-01T06:49:49;97416.47;;;16.92
19196;BMP280;9730;48.926;11.376;2022-07-01T06:52:16;97416.03;;;16.64
19196;BMP280;9730;48.926;11.376;2022-07-01T06:54:43;97413.66;;;16.61
19196;BMP280;9730;48.926;11.376;2022-07-01T06:57:09;97415.97;;;16.53
19196;BMP280;9730;48.926;11.376;2022-07-01T06:59:36;97419.34;;;16.88
19196;BMP280;9730;48.926;11.376;2022-07-01T07:02:03;97432.81;;;17.01
19196;BMP280;9730;48.926;11.376;2022-07-01T07:04:34;97421.28;;;17.18
19196;BMP280;9730;48.926;11.376;2022-07-01T07:07:00;97420.31;;;17.32
19196;BMP280;9730;48.926;11.376;2022-07-01T07:09:27;97423.78;;;17.31
19196;BMP280;9730;48.926;11.376;2022-07-01T07:11:54;97421.53;;;17.60
19196;BMP280;9730;48.926;11.376;2022-07-01T07:14:20;97423.63;;;17.88
19196;BMP280;9730;48.926;11.376;2022-07-01T07:16:47;97428.72;;;17.88
19196;BMP280;9730;48.926;11.376;2022-07-01T07:19:16;97426.41;;;18.07
19196;BMP280;9730;48.926;11.376;2022-07-01T07:21:44;97428.00;;;18.19
19196;BMP280;9730;48.926;11.376;2022-07-01T07:24:10;97418.47;;;18.32
19196;BMP280;9730;48.926;11.376;2022-07-01T07:26:37;97426.94;;;17.34
19196;BMP280;9730;48.926;11.376;2022-07-01T07:29:03;97431.88;;;16.91
19196;BMP280;9730;48.926;11.376;2022-07-01T07:31:30;97417.81;;;17.08
19196;BMP280;9730;48.926;11.376;2022-07-01T07:33:56;97430.13;;;16.91
19196;BMP280;9730;48.926;11.376;2022-07-01T07:36:23;97432.03;;;16.77
19196;BMP280;9730;48.926;11.376;2022-07-01T07:38:51;97444.50;;;16.92
19196;BMP280;9730;48.926;11.376;2022-07-01T07:41:17;97432.53;;;16.82
19196;BMP280;9730;48.926;11.376;2022-07-01T07:43:44;97417.63;;;17.22
19196;BMP280;9730;48.926;11.376;2022-07-01T07:46:11;97426.94;;;17.00
19196;BMP280;9730;48.926;11.376;2022-07-01T07:48:37;97410.94;;;17.09
19196;BMP280;9730;48.926;11.376;2022-07-01T07:51:04;97434.53;;;16.89
19196;BMP280;9730;48.926;11.376;2022-07-01T07:53:30;97429.03;;;16.83
19196;BMP280;9730;48.926;11.376;2022-07-01T07:55:58;97431.94;;;17.12
19196;BMP280;9730;48.926;11.376;2022-07-01T07:58:25;97428.28;;;16.93
19196;BMP280;9730;48.926;11.376;2022-07-01T08:00:52;97417.31;;;17.03
19196;BMP280;9730;48.926;11.376;2022-07-01T08:03:18;97426.81;;;17.36
19196;BMP280;9730;48.926;11.376;2022-07-01T08:05:45;97429.63;;;17.09
19196;BMP280;9730;48.926;11.376;2022-07-01T08:08:11;97432.81;;;17.24
19196;BMP280;9730;48.926;11.376;2022-07-01T08:10:38;97438.94;;;16.98
19196;BMP280;9730;48.926;11.376;2022-07-01T08:13:06;97438.81;;;16.89
19196;BMP280;9730;48.926;11.376;2022-07-01T08:15:32;97437.25;;;16.75
19196;BMP280;9730;48.926;11.376;2022-07-01T08:17:59;97445.03;;;17.08
19196;BMP280;9730;48.926;11.376;2022-07-01T08:20:26;97453.41;;;17.21
19196;BMP280;9730;48.926;11.376;2022-07-01T08:22:52;97459.41;;;17.54
19196;BMP280;9730;48.926;11.376;2022-07-01T08:25:18;97472.75;;;17.58
19196;BMP280;9730;48.926;11.376;2022-07-01T08:27:45;97471.69;;;17.38
19196;BMP280;9730;48.926;11.376;2022-07-01T08:30:13;97493.13;;;16.89
19196;BMP280;9730;48.926;11.376;2022-07-01T08:32:39;97503.84;;;16.82
19196;BMP280;9730;48.926;11.376;2022-07-01T08:35:07;97503.84;;;17.28
19196;BMP280;9730;48.926;11.376;2022-07-01T08:37:34;97504.59;;;16.95
19196;BMP280;9730;48.926;11.376;2022-07-01T08:40:01;97504.44;;;17.08
19196;BMP280;9730;48.926;11.376;2022-07-01T08:42:27;97514.19;;;17.38
19196;BMP280;9730;48.926;11.376;2022-07-01T08:44:54;97506.28;;;16.83
19196;BMP280;9730;48.926;11.376;2022-07-01T08:47:22;97511.28;;;17.08
19196;BMP280;9730;48.926;11.376;2022-07-01T08:49:48;97524.16;;;17.41
19196;BMP280;9730;48.926;11.376;2022-07-01T08:52:15;97524.00;;;17.65
19196;BMP280;9730;48.926;11.376;2022-07-01T08:54:41;97528.06;;;17.68
19196;BMP280;9730;48.926;11.376;2022-07-01T08:57:08;97530.16;;;17.63
19196;BMP280;9730;48.926;11.376;2022-07-01T08:59:35;97534.41;;;17.62
19196;BMP280;9730;48.926;11.376;2022-07-01T09:02:03;97532.97;;;17.93
19196;BMP280;9730;48.926;11.376;2022-07-01T09:04:31;97529.97;;;18.09
19196;BMP280;9730;48.926;11.376;2022-07-01T09:07:03;97520.34;;;18.02
19196;BMP280;9730;48.926;11.376;2022-07-01T09:09:33;97517.88;;;17.79
19196;BMP280;9730;48.926;11.376;2022-07-01T09:12:00;97531.31;;;17.81
19196;BMP280;9730;48.926;11.376;2022-07-01T09:14:28;97536.69;;;16.97
19196;BMP280;9730;48.926;11.376;2022-07-01T09:16:57;97541.59;;;17.23
19196;BMP280;9730;48.926;11.376;2022-07-01T09:19:25;97529.94;;;17.32
19196;BMP280;9730;48.926;11.376;2022-07-01T09:21:55;97541.25;;;17.04
19196;BMP280;9730;48.926;11.376;2022-07-01T09:24:28;97549.84;;;16.91
19196;BMP280;9730;48.926;11.376;2022-07-01T09:26:57;97538.84;;;17.60
19196;BMP280;9730;48.926;11.376;2022-07-01T09:29:28;97518.59;;;18.03
19196;BMP280;9730;48.926;11.376;2022-07-01T09:31:57;97524.28;;;17.95
19196;BMP280;9730;48.926;11.376;2022-07-01T09:34:23;97535.09;;;18.20
19196;BMP280;9730;48.926;11.376;2022-07-01T09:36:56;97537.06;;;18.06
19196;BMP280;9730;48.926;11.376;2022-07-01T09:39:23;97535.00;;;18.22
19196;BMP280;9730;48.926;11.376;2022-07-01T09:41:53;97532.00;;;18.39
19196;BMP280;9730;48.926;11.376;2022-07-01T09:44:20;97527.81;;;18.38
19196;BMP280;9730;48.926;11.376;2022-07-01T09:46:54;97527.19;;;18.45
19196;BMP280;9730;48.926;11.376;2022-07-01T09:49:21;97528.44;;;17.40
19196;BMP280;9730;48.926;11.376;2022-07-01T09:51:49;97526.84;;;18.06
19196;BMP280;9730;48.926;11.376;2022-07-01T09:54:17;97521.00;;;17.26
19196;BMP280;9730;48.926;11.376;2022-07-01T09:56:44;97520.41;;;17.10
19196;BMP280;9730;48.926;11.376;2022-07-01T09:59:11;97535.13;;;17.07
19196;BMP280;9730;48.926;11.376;2022-07-01T10:01:38;97532.84;;;17.83
19196;BMP280;9730;48.926;11.376;2022-07-01T10:04:07;97540.94;;;17.66
19196;BMP280;9730;48.926;11.376;2022-07-01T10:06:48;97531.28;;;17.59
19196;BMP280;9730;48.926;11.376;2022-07-01T10:09:52;97536.22;;;17.39
19196;BMP280;9730;48.926;11.376;2022-07-01T10:12:39;97532.84;;;17.15
19196;BMP280;9730;48.926;11.376;2022-07-01T10:15:09;97543.97;;;16.91
19196;BMP280;9730;48.926;11.376;2022-07-01T10:17:37;97541.28;;;17.15
19196;BMP280;9730;48.926;11.376;2022-07-01T10:20:09;97552.56;;;17.01
19196;BMP280;9730;48.926;11.376;2022-07-01T10:22:37;97543.84;;;17.15
19196;BMP280;9730;48.926;11.376;2022-07-01T10:25:31;97566.13;;;17.48
19196;BMP280;9730;48.926;11.376;2022-07-01T10:28:15;97597.63;;;17.00
19196;BMP280;9730;48.926;11.376;2022-07-01T10:30:57;97606.19;;;17.35
19196;BMP280;9730;48.926;11.376;2022-07-01T10:33:46;97605.38;;;17.68
19196;BMP280;9730;48.926;11.376;2022-07-01T10:36:15;97602.41;;;17.74
19196;BMP280;9730;48.926;11.376;2022-07-01T10:39:07;97607.78;;;17.82
19196;BMP280;9730;48.926;11.376;2022-07-01T10:41:37;97607.16;;;17.79
19196;BMP280;9730;48.926;11.376;2022-07-01T10:44:05;97606.91;;;17.71
19196;BMP280;9730;48.926;11.376;2022-07-01T10:46:40;97616.22;;;17.25
19196;BMP280;9730;48.926;11.376;2022-07-01T10:49:10;97610.31;;;17.12
19196;BMP280;9730;48.926;11.376;2022-07-01T10:51:47;97604.31;;;17.13
19196;BMP280;9730;48.926;11.376;2022-07-01T10:54:47;97608.88;;;17.21
19196;BMP280;9730;48.926;11.376;2022-07-01T10:57:43;97623.59;;;17.05
19196;BMP280;9730;48.926;11.376;2022-07-01T11:00:28;97618.31;;;17.08
19196;BMP280;9730;48.926;11.376;2022-07-01T11:03:14;97624.88;;;17.23
19196;BMP280;9730;48.926;11.376;2022-07-01T11:05:42;97622.63;;;17.18
19196;BMP280;9730;48.926;11.376;2022-07-01T11:08:09;97637.63;;;17.10
19196;BMP280;9730;48.926;11.376;2022-07-01T11:10:37;97638.47;;;17.23
19196;BMP280;9730;48.926;11.376;2022-07-01T11:13:05;97617.78;;;17.03
19196;BMP280;9730;48.926;11.376;2022-07-01T11:15:33;97619.34;;;16.93
19196;BMP280;9730;48.926;11.376;2022-07-01T11:18:00;97614.69;;;17.23
19196;BMP280;9730;48.926;11.376;2022-07-01T11:20:29;97609.38;;;17.49
19196;BMP280;9730;48.926;11.376;2022-07-01T11:22:56;97618.00;;;17.59
19196;BMP280;9730;48.926;11.376;2022-07-01T11:25:23;97619.19;;;18.11
19196;BMP280;9730;48.926;11.376;2022-07-01T11:27:50;97613.94;;;17.91
19196;BMP280;9730;48.926;11.376;2022-07-01T11:30:20;97614.41;;;18.07
19196;BMP280;9730;48.926;11.376;2022-07-01T11:32:48;97619.13;;;17.78
19196;BMP280;9730;48.926;11.376;2022-07-01T11:35:17;97598.88;;;18.09
19196;BMP280;9730;48.926;11.376;2022-07-01T11:38:06;97608.75;;;18.03
19196;BMP280;9730;48.926;11.376;2022-07-01T11:40:51;97611.22;;;17.47
19196;BMP280;9730;48.926;11.376;2022-07-01T11:43:19;97595.56;;;17.75
19196;BMP280;9730;48.926;11.376;2022-07-01T11:45:47;97597.00;;;18.01
19196;BMP280;9730;48.926;11.376;2022-07-01T11:48:28;97599.84;;;17.74
19196;BMP280;9730;48.926;11.376;2022-07-01T11:50:55;97597.81;;;18.01
19196;BMP280;9730;48.926;11.376;2022-07-01T11:53:21;97590.38;;;17.53
19196;BMP280;9730;48.926;11.376;2022-07-01T11:55:48;97592.13;;;17.53
19196;BMP280;9730;48.926;11.376;2022-07-01T11:58:14;97594.94;;;16.78
19196;BMP280;9730;48.926;11.376;2022-07-01T12:00:41;97598.81;;;16.71
19196;BMP280;9730;48.926;11.376;2022-07-01T12:03:09;97589.28;;;16.62
19196;BMP280;9730;48.926;11.376;2022-07-01T12:05:36;97573.16;;;16.62
19196;BMP280;9730;48.926;11.376;2022-07-01T12:08:03;97577.31;;;17.11
19196;BMP280;9730;48.926;11.376;2022-07-01T12:10:30;97573.44;;;16.82
19196;BMP280;9730;48.926;11.376;2022-07-01T12:12:57;97582.63;;;16.72
19196;BMP280;9730;48.926;11.376;2022-07-01T12:15:23;97588.34;;;16.99
19196;BMP280;9730;48.926;11.376;2022-07-01T12:18:04;97582.25;;;17.48
19196;BMP280;9730;48.926;11.376;2022-07-01T12:20:32;97606.56;;;17.41
19196;BMP280;9730;48.926;11.376;2022-07-01T12:23:10;97613.25;;;16.96
19196;BMP280;9730;48.926;11.376;2022-07-01T12:25:37;97600.16;;;16.64
19196;BMP280;9730;48.926;11.376;2022-07-01T12:28:04;97617.66;;;16.81
19196;BMP280;9730;48.926;11.376;2022-07-01T12:30:31;97618.19;;;17.09
19196;BMP280;9730;48.926;11.376;2022-07-01T12:33:08;97628.25;;;17.23
19196;BMP280;9730;48.926;11.376;2022-07-01T12:35:39;97643.03;;;17.18
19196;BMP280;9730;48.926;11.376;2022-07-01T12:38:15;97652.72;;;17.26
19196;BMP280;9730;48.926;11.376;2022-07-01T12:40:41;97664.94;;;17.21
19196;BMP280;9730;48.926;11.376;2022-07-01T12:43:22;97670.50;;;17.02
19196;BMP280;9730;48.926;11.376;2022-07-01T12:45:48;97686.50;;;16.92
19196;BMP280;9730;48.926;11.376;2022-07-01T12:48:15;97694.59;;;16.74
19196;BMP280;9730;48.926;11.376;2022-07-01T12:50:43;97702.69;;;17.03
19196;BMP280;9730;48.926;11.376;2022-07-01T12:53:12;97699.47;;;16.89
19196;BMP280;9730;48.926;11.376;2022-07-01T12:55:44;97719.84;;;16.89
19196;BMP280;9730;48.926;11.376;2022-07-01T12:58:12;97723.78;;;17.05
19196;BMP280;9730;48.926;11.376;2022-07-01T13:00:41;97722.69;;;16.97
19196;BMP280;9730;48.926;11.376;2022-07-01T13:03:09;97733.38;;;16.77
19196;BMP280;9730;48.926;11.376;2022-07-01T13:05:36;97741.25;;;16.74
19196;BMP280;9730;48.926;11.376;2022-07-01T13:08:05;97736.88;;;16.51
19196;BMP280;9730;48.926;11.376;2022-07-01T13:10:32;97732.47;;;16.66
19196;BMP280;9730;48.926;11.376;2022-07-01T13:12:59;97741.63;;;16.44
19196;BMP280;9730;48.926;11.376;2022-07-01T13:15:25;97755.69;;;16.37
19196;BMP280;9730;48.926;11.376;2022-07-01T13:17:52;97756.00;;;16.45
19196;BMP280;9730;48.926;11.376;2022-07-01T13:20:19;97764.97;;;16.50
19196;BMP280;9730;48.926;11.376;2022-07-01T13:22:46;97780.84;;;16.41
19196;BMP280;9730;48.926;11.376;2022-07-01T13:25:14;97785.63;;;16.19
19196;BMP280;9730;48.926;11.376;2022-07-01T13:27:41;97784.41;;;15.46
19196;BMP280;9730;48.926;11.376;2022-07-01T13:30:09;97779.75;;;15.66
19196;BMP280;9730;48.926;11.376;2022-07-01T13:32:36;97776.84;;;15.58
19196;BMP280;9730;48.926;11.376;2022-07-01T13:35:05;97786.78;;;15.35
19196;BMP280;9730;48.926;11.376;2022-07-01T13:37:32;97788.94;;;15.13
19196;BMP280;9730;48.926;11.376;2022-07-01T13:39:59;97780.50;;;15.13
19196;BMP280;9730;48.926;11.376;2022-07-01T13:42:26;97761.19;;;15.10
19196;BMP280;9730;48.926;11.376;2022-07-01T13:44:53;97747.69;;;14.96
19196;BMP280;9730;48.926;11.376;2022-07-01T13:47:20;97736.25;;;14.89
19196;BMP280;9730;48.926;11.376;2022-07-01T13:49:47;97722.38;;;14.81
19196;BMP280;9730;48.926;11.376;2022-07-01T13:52:13;97726.81;;;14.77
19196;BMP280;9730;48.926;11.376;2022-07-01T13:54:41;97728.34;;;14.52
19196;BMP280;9730;48.926;11.376;2022-07-01T13:57:07;97716.47;;;14.80
19196;BMP280;9730;48.926;11.376;2022-07-01T13:59:35;97699.72;;;14.78
19196;BMP280;9730;48.926;11.376;2022-07-01T14:02:02;97698.16;;;14.89
19196;BMP280;9730;48.926;11.376;2022-07-01T14:04:30;97697.88;;;14.93
19196;BMP280;9730;48.926;11.376;2022-07-01T14:06:57;97690.69;;;15.14
19196;BMP280;9730;48.926;11.376;2022-07-01T14:09:23;97690.81;;;14.98
19196;BMP280;9730;48.926;11.376;2022-07-01T14:11:50;97705.47;;;15.07
19196;BMP280;9730;48.926;11.376;2022-07-01T14:14:16;97718.56;;;14.88
19196;BMP280;9730;48.926;11.376;2022-07-01T14:16:44;97736.97;;;15.05